Time;durP1;ratioP1;P1;durP2;ratioP2;P2;SDS_P1;SDS_P2;PMS_P1;PMS_P2;Temp;Humidity;BMP_temperature;BMP_pressure;BME280_temperature;BME280_humidity;BME280_pressure;Samples;Min_cycle;Max_cycle;Signal;HPM_P1;HPM_P2
2023/03/14 00:01:24;;;;;;;28.50;4.90;;;10.60;99.90;;;;;;4992494;28;20030;-47
2023/03/14 00:03:50;;;;;;;28.42;5.15;;;10.60;99.90;;;;;;4992901;28;20474;-48
2023/03/14 00:06:17;;;;;;;19.92;4.13;;;10.60;99.90;;;;;;4992452;28;20073;-48
2023/03/14 00:08:44;;;;;;;21.02;4.45;;;10.60;99.90;;;;;;4992651;28;20474;-45
2023/03/14 00:11:12;;;;;;;18.35;4.13;;;10.60;99.90;;;;;;4992331;28;20042;-46
2023/03/14 00:13:38;;;;;;;22.80;5.13;;;10.60;99.90;;;;;;4992527;28;20042;-52
2023/03/14 00:16:10;;;;;;;25.20;4.70;;;10.60;99.90;;;;;;4990168;28;20536;-52
2023/03/14 00:18:36;;;;;;;26.33;4.80;;;10.60;99.90;;;;;;4992679;28;20454;-47
2023/03/14 00:21:03;;;;;;;17.45;4.18;;;10.60;99.90;;;;;;4991624;28;20074;-49
2023/03/14 00:23:30;;;;;;;20.80;3.97;;;10.70;99.90;;;;;;4992259;28;20038;-51
2023/03/14 00:26:01;;;;;;;22.95;4.10;;;10.70;99.90;;;;;;4992083;28;20061;-50
2023/03/14 00:28:27;;;;;;;18.42;4.20;;;10.80;99.90;;;;;;4992091;28;20046;-49
2023/03/14 00:30:53;;;;;;;18.35;4.50;;;10.80;99.90;;;;;;4991864;28;20053;-51
2023/03/14 00:33:18;;;;;;;20.08;3.80;;;10.80;99.90;;;;;;4992142;28;20038;-48
2023/03/14 00:35:59;;;;;;;18.65;4.50;;;10.80;99.90;;;;;;4991970;28;20101;-49
2023/03/14 00:38:25;;;;;;;23.60;4.30;;;10.80;99.90;;;;;;4991611;28;20042;-50
2023/03/14 00:40:52;;;;;;;22.08;4.57;;;10.80;99.90;;;;;;4992022;28;20057;-51
2023/03/14 00:43:18;;;;;;;24.25;5.38;;;10.80;99.90;;;;;;4991995;28;20034;-49
2023/03/14 00:45:44;;;;;;;17.45;5.03;;;10.70;99.90;;;;;;4991852;28;20449;-49
2023/03/14 00:48:10;;;;;;;17.27;4.20;;;10.70;99.90;;;;;;4991761;28;20030;-49
2023/03/14 00:50:35;;;;;;;19.55;5.55;;;10.70;99.90;;;;;;4990287;28;20038;-51
2023/03/14 00:53:01;;;;;;;20.73;5.63;;;10.60;99.90;;;;;;4991817;28;20324;-50
2023/03/14 00:55:27;;;;;;;18.90;5.20;;;10.70;99.90;;;;;;4991400;28;20073;-51
2023/03/14 00:57:52;;;;;;;22.27;5.15;;;10.50;99.90;;;;;;4991403;28;20034;-50
2023/03/14 01:00:18;;;;;;;16.15;4.75;;;10.50;99.90;;;;;;4989329;28;20093;-50
2023/03/14 01:02:44;;;;;;;20.63;4.78;;;10.40;99.90;;;;;;4991492;28;20058;-49
2023/03/14 01:05:12;;;;;;;18.95;4.90;;;10.40;99.90;;;;;;4991313;28;20113;-51
2023/03/14 01:07:38;;;;;;;21.33;4.85;;;10.40;99.90;;;;;;4991623;28;20116;-48
2023/03/14 01:10:05;;;;;;;21.20;4.93;;;10.30;99.90;;;;;;4988607;28;20482;-49
2023/03/14 01:12:31;;;;;;;18.50;4.20;;;10.30;99.90;;;;;;4991552;28;20096;-51
2023/03/14 01:14:57;;;;;;;22.25;5.63;;;10.20;99.90;;;;;;4991627;28;20050;-47
2023/03/14 01:17:23;;;;;;;19.75;4.65;;;10.20;99.90;;;;;;4991352;28;20390;-49
2023/03/14 01:19:49;;;;;;;20.63;4.63;;;10.20;99.90;;;;;;4973205;28;20405;-50
2023/03/14 01:22:15;;;;;;;19.08;5.05;;;10.00;99.90;;;;;;4991222;28;20030;-50
2023/03/14 01:24:40;;;;;;;23.45;5.07;;;10.00;99.90;;;;;;4991368;28;20038;-51
2023/03/14 01:27:06;;;;;;;20.25;4.45;;;9.90;99.90;;;;;;4990965;28;20065;-50
2023/03/14 01:29:32;;;;;;;20.10;4.35;;;9.90;99.90;;;;;;4991358;28;20117;-48
2023/03/14 01:31:58;;;;;;;19.33;4.88;;;9.90;99.90;;;;;;4989611;28;20046;-51
2023/03/14 01:34:23;;;;;;;18.38;4.30;;;9.80;99.90;;;;;;4991101;28;20042;-50
2023/03/14 01:36:49;;;;;;;18.42;3.92;;;9.80;99.90;;;;;;4990938;28;20034;-49
2023/03/14 01:39:15;;;;;;;16.73;3.92;;;9.80;99.90;;;;;;4990733;28;20108;-50
2023/03/14 01:41:41;;;;;;;17.40;4.13;;;9.80;99.90;;;;;;4991193;28;20030;-50
2023/03/14 01:44:11;;;;;;;17.13;4.22;;;9.80;99.90;;;;;;4988447;28;20129;-51
2023/03/14 01:46:41;;;;;;;21.15;4.57;;;9.90;99.90;;;;;;4987719;28;20474;-50
2023/03/14 01:49:19;;;;;;;19.65;4.68;;;9.80;99.90;;;;;;4986316;28;20053;-50
2023/03/14 01:52:03;;;;;;;19.10;4.88;;;9.80;99.90;;;;;;4988905;28;20041;-50
2023/03/14 01:54:44;;;;;;;24.90;5.28;;;9.80;99.90;;;;;;4990758;28;20038;-48
2023/03/14 01:57:18;;;;;;;19.95;5.10;;;9.80;99.90;;;;;;4988655;28;20190;-49
2023/03/14 01:59:51;;;;;;;20.80;4.32;;;9.80;99.90;;;;;;4989954;28;20548;-49
2023/03/14 02:02:17;;;;;;;17.52;4.05;;;9.80;99.90;;;;;;4988107;28;20043;-50
2023/03/14 02:04:43;;;;;;;12.77;3.97;;;9.80;99.90;;;;;;4990872;28;20042;-53
2023/03/14 02:07:15;;;;;;;21.63;4.05;;;9.90;99.90;;;;;;4990860;28;20065;-49
2023/03/14 02:09:42;;;;;;;19.17;4.47;;;9.90;99.90;;;;;;4990731;28;20045;-48
2023/03/14 02:12:14;;;;;;;14.35;4.07;;;9.90;99.90;;;;;;4990977;28;20050;-49
2023/03/14 02:14:42;;;;;;;16.50;3.85;;;9.90;99.90;;;;;;4990556;28;20073;-48
2023/03/14 02:17:08;;;;;;;16.85;4.10;;;9.90;99.90;;;;;;4990443;28;20046;-51
2023/03/14 02:20:04;;;;;;;16.35;4.15;;;9.80;99.90;;;;;;4989207;28;20103;-47
2023/03/14 02:22:31;;;;;;;14.95;3.60;;;9.80;99.90;;;;;;4990781;28;20042;-51
2023/03/14 02:25:38;;;;;;;16.08;4.32;;;9.80;99.90;;;;;;4990784;28;20117;-48
2023/03/14 02:28:04;;;;;;;13.52;3.80;;;9.70;99.90;;;;;;4970492;28;20058;-49
2023/03/14 02:30:31;;;;;;;18.48;4.05;;;9.70;99.90;;;;;;4989095;28;20038;-49
2023/03/14 02:33:09;;;;;;;14.13;3.63;;;9.80;99.90;;;;;;4990459;28;20409;-51
2023/03/14 02:35:41;;;;;;;15.38;3.53;;;9.70;99.90;;;;;;4990415;28;20038;-49
2023/03/14 02:38:35;;;;;;;13.95;3.40;;;9.60;99.90;;;;;;4990805;28;20143;-47
2023/03/14 02:41:01;;;;;;;13.43;4.07;;;9.60;99.90;;;;;;4989853;28;20077;-50
2023/03/14 02:43:27;;;;;;;13.25;4.00;;;9.50;99.90;;;;;;4990493;28;20062;-48
2023/03/14 02:45:53;;;;;;;10.75;3.95;;;9.50;99.90;;;;;;4988447;28;20038;-49
2023/03/14 02:48:24;;;;;;;15.73;4.07;;;9.40;99.90;;;;;;4989892;28;20416;-50
2023/03/14 02:50:55;;;;;;;12.98;3.63;;;9.30;99.90;;;;;;4990382;28;20042;-49
2023/03/14 02:53:33;;;;;;;11.85;4.28;;;9.30;99.90;;;;;;4990910;28;20038;-49
2023/03/14 02:55:59;;;;;;;10.07;3.90;;;9.30;99.90;;;;;;4990034;28;20124;-49
2023/03/14 02:58:26;;;;;;;11.05;3.90;;;9.30;99.90;;;;;;4990224;28;20034;-48
2023/03/14 03:00:52;;;;;;;13.60;4.32;;;9.20;99.90;;;;;;4990847;28;20039;-50
2023/03/14 03:03:18;;;;;;;14.20;4.10;;;9.20;99.90;;;;;;4994213;28;20425;-49
2023/03/14 03:05:48;;;;;;;13.82;4.60;;;9.20;99.90;;;;;;4994045;28;20022;-51
2023/03/14 03:08:14;;;;;;;15.75;4.88;;;9.10;99.90;;;;;;4993592;28;20047;-49
2023/03/14 03:10:39;;;;;;;14.98;4.22;;;9.10;99.90;;;;;;4993850;28;20042;-50
2023/03/14 03:13:05;;;;;;;15.60;4.35;;;9.10;99.90;;;;;;4993536;28;20066;-50
2023/03/14 03:15:31;;;;;;;15.85;5.57;;;9.20;99.90;;;;;;4994145;28;20035;-48
2023/03/14 03:17:56;;;;;;;15.75;4.97;;;9.20;99.90;;;;;;4993929;28;20052;-52
2023/03/14 03:20:22;;;;;;;19.98;5.43;;;9.10;99.90;;;;;;4992225;28;20437;-49
2023/03/14 03:22:49;;;;;;;15.77;5.20;;;9.10;99.90;;;;;;4993575;28;20065;-48
2023/03/14 03:25:16;;;;;;;17.63;4.63;;;9.10;99.90;;;;;;4993161;28;20042;-47
2023/03/14 03:27:41;;;;;;;13.15;4.30;;;9.20;99.90;;;;;;4992989;28;20508;-50
2023/03/14 03:30:09;;;;;;;18.15;4.75;;;9.10;99.90;;;;;;4990586;28;20047;-50
2023/03/14 03:32:34;;;;;;;16.25;4.20;;;9.10;99.90;;;;;;4991851;28;20117;-49
2023/03/14 03:35:01;;;;;;;18.02;4.20;;;9.10;99.90;;;;;;4993446;28;20046;-50
2023/03/14 03:37:27;;;;;;;13.68;4.05;;;9.10;99.90;;;;;;4993436;28;20045;-48
2023/03/14 03:39:53;;;;;;;14.45;4.30;;;9.10;99.90;;;;;;4993939;28;20046;-48
2023/03/14 03:42:19;;;;;;;15.93;4.03;;;9.10;99.90;;;;;;4992057;28;20038;-48
2023/03/14 03:44:45;;;;;;;13.27;4.05;;;9.10;99.90;;;;;;4993188;28;20109;-50
2023/03/14 03:47:11;;;;;;;14.30;4.15;;;9.20;99.90;;;;;;4993154;28;20114;-50
2023/03/14 03:49:37;;;;;;;16.75;4.43;;;9.20;99.90;;;;;;4992685;28;20133;-48
2023/03/14 03:52:02;;;;;;;11.40;3.55;;;9.10;99.90;;;;;;4991538;28;20100;-48
2023/03/14 03:54:31;;;;;;;10.02;3.63;;;9.10;99.90;;;;;;4993090;28;20046;-47
2023/03/14 03:56:57;;;;;;;15.75;4.18;;;9.20;99.90;;;;;;4991518;28;20054;-48
2023/03/14 03:59:22;;;;;;;15.55;3.75;;;9.10;99.90;;;;;;4992441;28;20043;-50
2023/03/14 04:01:48;;;;;;;14.73;4.20;;;9.10;99.90;;;;;;4993012;28;20033;-50
2023/03/14 04:04:14;;;;;;;15.07;3.70;;;9.10;99.90;;;;;;4992465;28;20119;-48
2023/03/14 04:06:41;;;;;;;14.60;3.95;;;9.00;99.90;;;;;;4991818;28;20441;-46
2023/03/14 04:09:08;;;;;;;15.98;4.05;;;9.10;99.90;;;;;;4991216;28;20038;-49
2023/03/14 04:11:34;;;;;;;16.90;3.95;;;9.00;99.90;;;;;;4991240;28;20038;-50
2023/03/14 04:13:59;;;;;;;15.82;4.03;;;9.00;99.90;;;;;;4991649;28;20504;-47
2023/03/14 04:16:27;;;;;;;15.45;4.50;;;9.00;99.90;;;;;;4989155;28;20030;-49
2023/03/14 04:18:53;;;;;;;14.57;5.22;;;8.90;99.90;;;;;;4992489;28;20069;-49
2023/03/14 04:21:19;;;;;;;17.30;5.18;;;8.90;99.90;;;;;;4992054;28;20068;-52
2023/03/14 04:23:44;;;;;;;16.17;5.07;;;8.90;99.90;;;;;;4992667;28;20533;-49
2023/03/14 04:26:10;;;;;;;14.95;4.88;;;9.00;99.90;;;;;;4991627;28;20041;-47
2023/03/14 04:28:36;;;;;;;13.25;4.90;;;8.90;99.90;;;;;;4989985;28;21528;-49
2023/03/14 04:31:10;;;;;;;15.13;4.80;;;9.00;99.90;;;;;;4990928;28;20069;-50
2023/03/14 04:33:37;;;;;;;13.15;4.93;;;9.10;99.90;;;;;;4991888;28;20474;-48
2023/03/14 04:36:04;;;;;;;18.42;5.68;;;8.90;99.90;;;;;;4989800;28;20050;-50
2023/03/14 04:38:30;;;;;;;19.17;5.38;;;9.10;99.90;;;;;;4990279;28;20113;-47
2023/03/14 04:40:56;;;;;;;11.52;4.90;;;9.00;99.90;;;;;;4990040;28;20141;-50
2023/03/14 04:43:22;;;;;;;12.27;4.72;;;9.00;99.90;;;;;;4991580;28;20522;-47
2023/03/14 04:45:47;;;;;;;13.63;4.63;;;9.20;99.90;;;;;;4990399;28;20030;-48
2023/03/14 04:48:14;;;;;;;12.90;4.70;;;9.20;99.90;;;;;;4989652;28;20042;-47
2023/03/14 04:50:39;;;;;;;13.25;4.80;;;9.20;99.90;;;;;;4991606;28;20512;-47
2023/03/14 04:53:05;;;;;;;14.75;4.75;;;9.20;99.90;;;;;;4991945;28;20114;-46
2023/03/14 04:55:34;;;;;;;12.88;5.00;;;9.20;99.90;;;;;;4991613;28;20038;-48
2023/03/14 04:58:00;;;;;;;14.57;5.22;;;9.20;99.90;;;;;;4990664;28;20042;-48
2023/03/14 05:00:25;;;;;;;16.33;4.65;;;9.30;99.90;;;;;;4988947;28;20045;-49
2023/03/14 05:02:51;;;;;;;13.07;4.65;;;9.30;99.90;;;;;;4990313;28;20034;-49
2023/03/14 05:05:17;;;;;;;17.38;4.90;;;9.30;99.90;;;;;;4991349;28;20057;-49
2023/03/14 05:07:42;;;;;;;18.05;5.10;;;9.30;99.90;;;;;;4991991;28;20061;-47
2023/03/14 05:10:09;;;;;;;12.40;5.05;;;9.20;99.90;;;;;;4991557;28;20494;-48
2023/03/14 05:12:35;;;;;;;15.13;5.15;;;9.20;99.90;;;;;;4991003;28;20046;-50
2023/03/14 05:15:01;;;;;;;15.13;5.25;;;9.20;99.90;;;;;;4988826;28;20049;-51
2023/03/14 05:17:26;;;;;;;17.02;5.45;;;9.20;99.90;;;;;;4991588;28;20062;-49
2023/03/14 05:19:52;;;;;;;13.23;4.60;;;9.20;99.90;;;;;;4990763;28;20588;-50
2023/03/14 05:22:18;;;;;;;15.98;5.38;;;9.10;99.90;;;;;;4991984;28;20528;-47
2023/03/14 05:24:44;;;;;;;16.83;5.03;;;9.20;99.90;;;;;;4991960;28;20547;-48
2023/03/14 05:27:09;;;;;;;15.70;5.30;;;9.10;99.90;;;;;;4991110;28;20054;-52
2023/03/14 05:29:35;;;;;;;14.90;5.20;;;9.10;99.90;;;;;;4991220;28;20050;-46
2023/03/14 05:32:01;;;;;;;19.55;5.25;;;9.20;99.90;;;;;;4991477;28;20405;-47
2023/03/14 05:34:26;;;;;;;16.13;5.95;;;9.10;99.90;;;;;;4990413;28;20046;-48
2023/03/14 05:36:52;;;;;;;19.58;5.70;;;9.10;99.90;;;;;;4991817;28;20069;-49
2023/03/14 05:39:18;;;;;;;17.38;5.45;;;9.00;99.90;;;;;;4990756;28;20034;-48
2023/03/14 05:41:44;;;;;;;14.88;5.78;;;8.90;99.90;;;;;;4990976;28;20473;-48
2023/03/14 05:44:09;;;;;;;19.55;5.53;;;9.00;99.90;;;;;;4991048;28;20393;-49
2023/03/14 05:46:35;;;;;;;19.88;5.47;;;9.00;99.90;;;;;;4988565;28;20035;-51
2023/03/14 05:49:01;;;;;;;19.25;5.60;;;9.00;99.90;;;;;;4989150;28;20406;-50
2023/03/14 05:51:26;;;;;;;19.52;5.53;;;9.00;99.90;;;;;;4990470;28;20121;-48
2023/03/14 05:53:52;;;;;;;16.65;5.10;;;8.80;99.90;;;;;;4991032;28;20034;-44
2023/03/14 05:56:18;;;;;;;17.42;5.13;;;8.80;99.90;;;;;;4990834;28;20049;-50
2023/03/14 05:58:44;;;;;;;13.40;5.32;;;9.00;99.90;;;;;;4991328;28;20058;-49
2023/03/14 06:01:09;;;;;;;13.65;5.70;;;9.00;99.90;;;;;;4991537;28;20436;-49
2023/03/14 06:03:35;;;;;;;12.93;5.45;;;9.10;99.90;;;;;;4990986;28;20646;-49
2023/03/14 06:06:01;;;;;;;14.18;5.95;;;8.90;99.90;;;;;;4990432;28;20493;-48
2023/03/14 06:08:27;;;;;;;15.15;5.45;;;8.90;99.90;;;;;;4990827;28;20034;-51
2023/03/14 06:10:53;;;;;;;13.15;4.93;;;8.70;99.90;;;;;;4990203;28;20053;-48
2023/03/14 06:13:21;;;;;;;11.02;4.80;;;8.90;99.90;;;;;;4990988;28;20038;-50
2023/03/14 06:15:46;;;;;;;11.10;4.82;;;8.90;99.90;;;;;;4989332;28;20057;-49
2023/03/14 06:18:13;;;;;;;10.13;4.68;;;8.80;99.90;;;;;;4990088;28;20046;-48
2023/03/14 06:20:39;;;;;;;11.40;4.65;;;8.70;99.90;;;;;;4989788;28;20045;-50
2023/03/14 06:23:06;;;;;;;14.57;5.28;;;8.90;99.90;;;;;;4989478;28;20034;-50
2023/03/14 06:25:32;;;;;;;16.02;5.88;;;8.80;99.90;;;;;;4990396;28;20104;-48
2023/03/14 06:27:58;;;;;;;14.77;6.28;;;8.80;99.90;;;;;;4990708;28;20510;-51
2023/03/14 06:30:24;;;;;;;15.77;6.22;;;8.80;99.90;;;;;;4989830;28;20128;-50
2023/03/14 06:32:50;;;;;;;16.55;6.13;;;8.80;99.90;;;;;;4987989;28;20042;-49
2023/03/14 06:35:16;;;;;;;18.20;5.97;;;8.90;99.90;;;;;;4990875;28;20042;-46
2023/03/14 06:37:42;;;;;;;19.92;6.35;;;8.80;99.90;;;;;;4994523;28;20034;-48
2023/03/14 06:40:10;;;;;;;15.98;6.38;;;8.90;99.90;;;;;;4994000;28;20046;-48
2023/03/14 06:42:36;;;;;;;13.88;6.05;;;8.90;99.90;;;;;;4993538;28;20041;-50
2023/03/14 06:45:01;;;;;;;16.40;5.72;;;8.70;99.90;;;;;;4994472;28;20042;-47
2023/03/14 06:47:27;;;;;;;14.10;4.32;;;8.70;99.90;;;;;;4994639;28;20050;-50
2023/03/14 06:49:53;;;;;;;9.85;3.10;;;8.60;99.90;;;;;;4994262;28;20038;-47
2023/03/14 06:52:18;;;;;;;6.97;2.67;;;8.80;99.90;;;;;;4993200;28;20077;-48
2023/03/14 06:54:44;;;;;;;7.88;2.20;;;8.70;99.90;;;;;;4994155;28;20046;-49
2023/03/14 06:57:10;;;;;;;8.70;2.50;;;8.40;99.90;;;;;;4992904;28;20045;-50
2023/03/14 06:59:35;;;;;;;9.48;2.35;;;8.40;99.90;;;;;;4993990;28;20046;-47
2023/03/14 07:02:01;;;;;;;7.22;2.20;;;8.50;99.90;;;;;;4994259;28;20053;-50
2023/03/14 07:04:27;;;;;;;4.70;1.92;;;8.30;99.90;;;;;;4993108;28;20496;-46
2023/03/14 07:06:52;;;;;;;9.77;1.90;;;8.20;99.90;;;;;;4994229;28;20042;-46
2023/03/14 07:09:18;;;;;;;6.85;1.90;;;8.10;99.90;;;;;;4992184;28;20046;-50
2023/03/14 07:11:44;;;;;;;5.63;1.85;;;7.80;99.90;;;;;;4993841;28;20041;-48
2023/03/14 07:14:10;;;;;;;9.10;2.08;;;7.80;99.90;;;;;;4992152;28;20068;-49
2023/03/14 07:16:36;;;;;;;5.72;2.10;;;7.70;99.90;;;;;;4991167;28;20042;-48
2023/03/14 07:19:02;;;;;;;6.05;1.90;;;7.70;99.90;;;;;;4993654;28;20390;-51
2023/03/14 07:21:28;;;;;;;8.60;2.25;;;7.50;99.90;;;;;;4991795;28;20043;-48
2023/03/14 07:23:53;;;;;;;8.68;2.03;;;7.50;99.90;;;;;;4993719;28;20670;-48
2023/03/14 07:26:19;;;;;;;11.93;1.85;;;7.50;99.90;;;;;;4993051;28;20133;-49
2023/03/14 07:28:45;;;;;;;6.53;1.50;;;7.30;99.90;;;;;;4993850;28;20097;-47
2023/03/14 07:31:11;;;;;;;6.53;1.20;;;7.20;99.90;;;;;;4991872;28;20448;-49
2023/03/14 07:33:36;;;;;;;6.03;1.40;;;7.00;99.90;;;;;;4993435;28;20069;-48
2023/03/14 07:36:03;;;;;;;10.80;1.50;;;6.90;99.90;;;;;;4992847;28;20039;-45
2023/03/14 07:38:29;;;;;;;7.82;1.30;;;6.70;99.90;;;;;;4993194;28;20371;-50
2023/03/14 07:41:03;;;;;;;9.27;1.40;;;7.00;99.90;;;;;;4991119;28;20046;-49
2023/03/14 07:43:29;;;;;;;8.20;1.40;;;6.40;99.90;;;;;;4989578;28;20042;-47
2023/03/14 07:45:55;;;;;;;9.40;1.25;;;6.30;99.90;;;;;;4991305;28;20089;-47
2023/03/14 07:48:21;;;;;;;7.32;1.27;;;6.30;99.90;;;;;;4990727;28;20109;-48
2023/03/14 07:50:50;;;;;;;7.32;1.27;;;6.60;99.90;;;;;;4987859;28;20468;-51
2023/03/14 07:53:16;;;;;;;6.20;1.20;;;6.30;99.90;;;;;;4992024;28;20117;-49
2023/03/14 07:55:42;;;;;;;8.15;0.90;;;5.90;99.90;;;;;;4975384;28;20745;-51
2023/03/14 07:58:08;;;;;;;3.65;0.70;;;5.80;99.90;;;;;;4993722;28;20108;-49
2023/03/14 08:00:33;;;;;;;4.97;0.65;;;5.90;99.90;;;;;;4993495;28;20271;-49
2023/03/14 08:02:59;;;;;;;3.78;0.57;;;5.80;99.90;;;;;;4992824;28;20042;-50
2023/03/14 08:05:25;;;;;;;5.28;0.90;;;5.60;99.90;;;;;;4981238;28;20457;-51
2023/03/14 08:07:50;;;;;;;5.82;0.70;;;5.60;99.90;;;;;;4983166;28;20039;-50
2023/03/14 08:10:22;;;;;;;7.18;0.93;;;5.50;99.90;;;;;;4983150;28;20046;-48
2023/03/14 08:12:49;;;;;;;6.55;0.82;;;5.60;99.90;;;;;;4985038;28;20187;-49
2023/03/14 08:15:15;;;;;;;4.30;0.60;;;5.70;99.90;;;;;;4985118;28;20038;-47
2023/03/14 08:17:41;;;;;;;3.92;0.70;;;5.60;99.90;;;;;;4983856;28;20381;-56
2023/03/14 08:20:08;;;;;;;2.63;0.70;;;5.50;99.90;;;;;;4983579;28;20053;-48
2023/03/14 08:22:34;;;;;;;7.38;0.80;;;5.60;99.90;;;;;;4984005;28;20065;-50
2023/03/14 08:24:59;;;;;;;3.40;0.80;;;5.70;99.90;;;;;;4982289;28;20093;-47
2023/03/14 08:27:25;;;;;;;2.55;0.55;;;5.70;99.90;;;;;;4981045;28;20132;-47
2023/03/14 08:29:51;;;;;;;3.92;0.57;;;5.40;99.90;;;;;;4983900;28;20053;-48
2023/03/14 08:32:16;;;;;;;2.88;0.50;;;5.80;99.90;;;;;;4983642;28;20038;-47
2023/03/14 08:34:43;;;;;;;2.95;0.57;;;5.70;99.90;;;;;;4983063;28;20030;-48
2023/03/14 08:37:08;;;;;;;12.80;1.13;;;5.80;99.90;;;;;;4983065;28;20539;-46
2023/03/14 08:39:34;;;;;;;2.80;0.40;;;5.80;99.90;;;;;;4981531;28;20034;-48
2023/03/14 08:42:00;;;;;;;4.57;0.60;;;5.90;99.90;;;;;;4982511;28;20113;-51
2023/03/14 08:44:25;;;;;;;3.97;0.60;;;5.70;99.90;;;;;;4979403;28;20051;-50
2023/03/14 08:46:51;;;;;;;8.07;1.15;;;5.70;99.90;;;;;;4978292;28;20065;-48
2023/03/14 08:49:17;;;;;;;5.28;1.08;;;5.80;99.90;;;;;;4979989;28;20514;-51
2023/03/14 08:51:42;;;;;;;6.43;1.20;;;6.00;99.90;;;;;;4981133;28;20030;-47
2023/03/14 08:54:11;;;;;;;3.72;0.80;;;5.80;99.90;;;;;;4983024;28;20485;-49
2023/03/14 08:56:39;;;;;;;4.88;1.00;;;5.80;99.90;;;;;;4982406;28;20030;-50
2023/03/14 08:59:06;;;;;;;7.20;0.70;;;5.80;99.90;;;;;;4981956;28;20398;-48
2023/03/14 09:01:32;;;;;;;7.22;1.33;;;5.90;99.90;;;;;;4981100;28;20038;-50
2023/03/14 09:03:57;;;;;;;5.13;0.90;;;6.00;99.90;;;;;;4981107;28;20605;-48
2023/03/14 09:06:23;;;;;;;9.05;1.23;;;6.10;99.90;;;;;;4980357;28;20117;-50
2023/03/14 09:08:49;;;;;;;9.40;0.85;;;6.10;99.90;;;;;;4979478;28;20026;-45
2023/03/14 09:11:15;;;;;;;10.90;1.08;;;6.20;99.90;;;;;;4977225;28;20049;-50
2023/03/14 09:13:41;;;;;;;7.95;0.90;;;6.70;99.90;;;;;;4980991;28;20038;-49
2023/03/14 09:16:07;;;;;;;5.28;0.90;;;6.40;99.90;;;;;;4979300;28;20379;-48
2023/03/14 09:18:33;;;;;;;12.20;1.40;;;6.30;99.90;;;;;;4978764;28;20038;-51
2023/03/14 09:20:59;;;;;;;9.25;1.20;;;6.30;99.90;;;;;;4979668;28;20047;-48
2023/03/14 09:23:24;;;;;;;9.95;1.25;;;6.40;99.90;;;;;;4978875;28;20038;-50
2023/03/14 09:25:55;;;;;;;13.75;1.38;;;6.30;99.90;;;;;;4981436;28;20061;-48
2023/03/14 09:28:21;;;;;;;5.05;1.05;;;6.40;99.90;;;;;;4976488;28;20054;-52
2023/03/14 09:30:47;;;;;;;8.73;1.48;;;6.40;99.90;;;;;;4977898;28;20448;-49
2023/03/14 09:33:12;;;;;;;12.02;2.00;;;6.50;99.90;;;;;;4978158;28;20117;-47
2023/03/14 09:35:38;;;;;;;11.82;1.60;;;6.50;99.90;;;;;;4977547;28;20493;-49
2023/03/14 09:38:05;;;;;;;10.07;1.80;;;6.60;99.90;;;;;;4970006;28;20042;-49
2023/03/14 09:40:35;;;;;;;16.23;1.95;;;6.70;99.90;;;;;;4975416;28;20590;-48
2023/03/14 09:43:01;;;;;;;10.52;1.70;;;6.90;99.90;;;;;;4979500;28;20026;-47
2023/03/14 09:45:37;;;;;;;13.18;2.00;;;6.80;99.90;;;;;;4979655;28;20034;-49
2023/03/14 09:48:04;;;;;;;11.15;1.60;;;6.80;99.90;;;;;;4979075;28;20069;-48
2023/03/14 09:50:39;;;;;;;12.75;2.00;;;6.80;99.90;;;;;;4979587;28;20109;-49
2023/03/14 09:53:12;;;;;;;12.23;2.08;;;7.00;99.90;;;;;;4981495;28;20104;-50
2023/03/14 09:55:38;;;;;;;16.05;2.55;;;6.90;99.90;;;;;;4977840;28;20240;-48
2023/03/14 09:58:11;;;;;;;16.90;2.58;;;6.90;99.90;;;;;;4978710;28;20432;-49
2023/03/14 10:00:37;;;;;;;16.73;1.92;;;6.80;99.90;;;;;;4977359;28;20089;-48
2023/03/14 10:03:11;;;;;;;16.73;2.08;;;6.70;99.90;;;;;;4981368;28;20072;-51
2023/03/14 10:05:38;;;;;;;11.07;1.80;;;6.60;99.90;;;;;;4979755;28;20097;-50
2023/03/14 10:08:04;;;;;;;17.77;2.65;;;6.50;99.90;;;;;;4980857;28;20114;-48
2023/03/14 10:10:31;;;;;;;19.20;2.63;;;6.40;99.90;;;;;;4979691;28;20122;-46
2023/03/14 10:13:00;;;;;;;12.68;2.25;;;6.40;99.90;;;;;;4986119;28;20037;-49
2023/03/14 10:15:31;;;;;;;19.70;2.42;;;6.40;99.90;;;;;;4986387;28;20429;-47
2023/03/14 10:18:01;;;;;;;18.58;2.50;;;6.50;99.90;;;;;;4985396;28;20045;-47
2023/03/14 10:20:36;;;;;;;16.73;2.40;;;6.60;99.90;;;;;;4983630;28;20042;-49
2023/03/14 10:23:26;;;;;;;19.63;2.25;;;6.60;99.90;;;;;;4984633;28;20191;-47
2023/03/14 10:26:08;;;;;;;22.13;3.60;;;6.70;99.90;;;;;;4983184;28;20453;-47
2023/03/14 10:28:39;;;;;;;21.92;2.65;;;6.90;99.90;;;;;;4984627;28;20046;-47
2023/03/14 10:31:05;;;;;;;17.63;2.65;;;6.90;99.90;;;;;;4983204;28;20065;-45
2023/03/14 10:33:35;;;;;;;14.40;2.40;;;6.90;99.90;;;;;;4982377;28;20380;-47
2023/03/14 10:36:16;;;;;;;30.73;2.90;;;6.90;99.90;;;;;;4983658;28;20046;-48
2023/03/14 10:38:41;;;;;;;21.05;2.97;;;6.90;99.90;;;;;;4982318;28;20089;-49
2023/03/14 10:41:23;;;;;;;19.83;3.53;;;6.90;99.90;;;;;;4980283;28;20373;-48
2023/03/14 10:43:58;;;;;;;18.20;2.65;;;7.00;99.90;;;;;;4983604;28;20088;-47
2023/03/14 10:46:27;;;;;;;21.75;3.17;;;7.00;99.90;;;;;;4983409;28;20100;-49
2023/03/14 10:48:53;;;;;;;16.35;2.75;;;7.00;99.90;;;;;;4984821;28;20053;-49
2023/03/14 10:51:24;;;;;;;17.25;2.22;;;7.10;99.90;;;;;;4983498;28;20482;-48
2023/03/14 10:53:57;;;;;;;24.77;3.05;;;7.20;99.90;;;;;;4981257;28;20126;-48
2023/03/14 10:56:26;;;;;;;17.23;3.20;;;7.30;99.90;;;;;;4980607;28;20050;-48
2023/03/14 10:58:56;;;;;;;19.92;3.08;;;7.30;99.90;;;;;;4964513;28;20054;-49
2023/03/14 11:01:29;;;;;;;16.20;3.13;;;7.30;99.90;;;;;;4979851;28;22903;-50
2023/03/14 11:04:14;;;;;;;22.38;2.70;;;7.30;99.90;;;;;;4984368;28;20030;-49
2023/03/14 11:07:00;;;;;;;13.65;2.60;;;7.40;99.90;;;;;;4983906;28;20038;-49
2023/03/14 11:09:37;;;;;;;14.32;2.33;;;7.40;99.90;;;;;;4983910;28;20042;-50
2023/03/14 11:12:19;;;;;;;14.25;2.75;;;7.50;99.90;;;;;;4982366;28;20053;-48
2023/03/14 11:14:54;;;;;;;20.15;2.70;;;7.50;99.90;;;;;;4983799;28;20042;-50
2023/03/14 11:17:38;;;;;;;17.13;2.70;;;7.50;99.90;;;;;;4981964;28;20478;-49
2023/03/14 11:20:11;;;;;;;;;;;7.40;99.90;;;;;;4984649;28;20038;-49
2023/03/14 11:22:46;;;;;;;12.95;1.80;;;7.40;99.90;;;;;;4983037;28;20400;-49
2023/03/14 11:25:25;;;;;;;18.17;2.80;;;7.50;99.90;;;;;;4983041;28;20044;-50
2023/03/14 11:28:28;;;;;;;13.57;2.45;;;7.40;99.90;;;;;;4979687;28;20050;-47
2023/03/14 11:31:04;;;;;;;13.20;1.85;;;7.30;99.90;;;;;;4982783;28;20136;-50
2023/03/14 11:33:38;;;;;;;8.73;2.08;;;7.20;99.90;;;;;;4981456;28;20054;-52
2023/03/14 11:36:15;;;;;;;13.88;2.42;;;7.20;99.90;;;;;;4982223;28;20038;-46
2023/03/14 11:38:48;;;;;;;10.38;2.28;;;7.40;99.90;;;;;;4979593;28;20097;-50
2023/03/14 11:41:25;;;;;;;8.50;1.70;;;7.60;99.90;;;;;;4980201;28;20133;-50
2023/03/14 11:43:59;;;;;;;7.15;1.63;;;7.90;99.90;;;;;;4983554;28;20030;-48
2023/03/14 11:46:38;;;;;;;13.68;1.50;;;8.20;99.90;;;;;;4982636;28;20066;-50
2023/03/14 11:49:24;;;;;;;16.80;2.78;;;8.20;99.90;;;;;;4982989;28;20070;-51
2023/03/14 11:51:59;;;;;;;14.05;2.33;;;8.10;99.90;;;;;;4982812;28;20049;-49
2023/03/14 11:54:45;;;;;;;13.57;2.40;;;8.30;99.90;;;;;;4979944;28;20051;-49
2023/03/14 11:57:18;;;;;;;12.82;2.25;;;8.40;99.90;;;;;;4983410;28;20034;-48
2023/03/14 11:59:56;;;;;;;16.73;2.42;;;8.30;99.90;;;;;;4981940;28;20097;-50
2023/03/14 12:02:45;;;;;;;11.25;1.65;;;8.30;99.90;;;;;;4981162;28;20045;-46
2023/03/14 12:05:25;;;;;;;13.20;2.13;;;8.30;99.90;;;;;;4982008;28;20026;-50
2023/03/14 12:08:03;;;;;;;7.53;1.20;;;8.40;99.90;;;;;;4982296;28;20034;-49
2023/03/14 12:10:36;;;;;;;9.52;1.42;;;9.50;99.90;;;;;;4982197;28;20054;-47
2023/03/14 12:13:02;;;;;;;6.35;1.30;;;8.50;99.90;;;;;;4981079;28;20042;-51
2023/03/14 12:15:28;;;;;;;8.43;1.23;;;8.50;99.90;;;;;;4981645;28;20070;-50
2023/03/14 12:17:56;;;;;;;7.18;1.50;;;8.60;99.90;;;;;;4981680;28;20050;-48
2023/03/14 12:20:24;;;;;;;8.82;1.35;;;8.70;99.90;;;;;;4982301;28;20039;-49
2023/03/14 12:23:11;;;;;;;6.28;1.17;;;8.70;99.90;;;;;;4980673;28;20034;-50
2023/03/14 12:25:37;;;;;;;6.18;1.05;;;8.90;99.90;;;;;;4979484;28;20117;-49
2023/03/14 12:28:17;;;;;;;5.57;1.20;;;9.00;99.90;;;;;;4981468;28;20137;-51
2023/03/14 12:30:43;;;;;;;7.05;1.50;;;9.00;99.90;;;;;;4979695;28;20057;-49
2023/03/14 12:33:33;;;;;;;7.45;1.45;;;9.10;99.90;;;;;;4980419;28;20394;-47
2023/03/14 12:36:01;;;;;;;7.63;1.40;;;9.10;99.90;;;;;;4981952;28;20038;-48
2023/03/14 12:38:36;;;;;;;5.18;1.25;;;9.20;99.90;;;;;;4981531;28;20038;-49
2023/03/14 12:41:38;;;;;;;8.20;1.58;;;9.40;99.90;;;;;;4978576;28;20071;-49
2023/03/14 12:44:28;;;;;;;5.50;1.38;;;9.70;99.90;;;;;;4979732;28;20033;-47
2023/03/14 12:46:58;;;;;;;10.10;1.40;;;9.50;99.90;;;;;;4981099;28;20042;-51
2023/03/14 12:49:37;;;;;;;10.50;1.27;;;9.40;99.90;;;;;;4981291;28;20038;-48
2023/03/14 12:52:16;;;;;;;8.40;1.58;;;9.10;99.90;;;;;;4980253;28;20037;-45
2023/03/14 12:54:58;;;;;;;9.10;1.50;;;8.80;99.90;;;;;;4989145;28;20349;-49
2023/03/14 12:57:32;;;;;;;11.40;1.85;;;8.70;99.90;;;;;;4988008;28;20042;-48